Time;durP1;ratioP1;P1;durP2;ratioP2;P2;SDS_P1;SDS_P2;PMS_P1;PMS_P2;Temp;Humidity;BMP_temperature;BMP_pressure;BME280_temperature;BME280_humidity;BME280_pressure;Samples;Min_cycle;Max_cycle;Signal;HPM_P1;HPM_P2
2021/01/07 00:00:05;;;;;;;28.35;19.95;;;;;;;-2.23;100.00;95471.13;1031995;28;20030;-70
2021/01/07 00:00:35;;;;;;;27.33;18.63;;;;;;;-2.23;100.00;95473.72;1031939;28;20105;-70
2021/01/07 00:01:05;;;;;;;29.48;20.55;;;;;;;-2.22;100.00;95470.09;1032923;28;20650;-69
2021/01/07 00:01:39;;;;;;;28.58;20.23;;;;;;;-2.22;100.00;95470.09;1036035;28;20033;-69
2021/01/07 00:02:10;;;;;;;27.58;19.45;;;;;;;-2.20;100.00;95475.88;1035730;28;20118;-70
2021/01/07 00:02:40;;;;;;;23.88;18.23;;;;;;;-2.18;100.00;95473.06;1036038;28;20331;-70
2021/01/07 00:03:11;;;;;;;26.85;20.73;;;;;;;-2.22;100.00;95473.50;1036656;28;20037;-70
2021/01/07 00:03:41;;;;;;;28.08;20.25;;;;;;;-2.21;100.00;95469.91;1040425;28;20386;-69
2021/01/07 00:04:12;;;;;;;26.17;19.65;;;;;;;-2.19;100.00;95474.88;1032094;28;20026;-70
2021/01/07 00:04:42;;;;;;;29.08;18.58;;;;;;;-2.18;100.00;95471.31;1028001;28;20069;-69
2021/01/07 00:05:13;;;;;;;26.73;19.20;;;;;;;-2.15;100.00;95468.28;1027981;28;20058;-70
2021/01/07 00:05:43;;;;;;;25.98;17.92;;;;;;;-2.12;100.00;95474.84;1028185;28;20073;-69
2021/01/07 00:06:14;;;;;;;28.42;19.15;;;;;;;-2.13;100.00;95470.69;1036213;28;20026;-69
2021/01/07 00:06:44;;;;;;;27.00;19.38;;;;;;;-2.09;100.00;95477.03;1040359;28;20010;-68
2021/01/07 00:07:15;;;;;;;26.75;18.98;;;;;;;-2.10;100.00;95468.47;1040410;28;20013;-69
2021/01/07 00:07:45;;;;;;;25.73;18.98;;;;;;;-2.12;100.00;95474.84;1040429;28;20028;-70
2021/01/07 00:08:16;;;;;;;26.75;18.48;;;;;;;-2.13;100.00;95475.88;1035972;28;20378;-69
2021/01/07 00:08:46;;;;;;;24.40;18.98;;;;;;;-2.10;100.00;95471.06;1036004;28;20449;-69
2021/01/07 00:09:17;;;;;;;24.77;17.67;;;;;;;-2.11;100.00;95479.03;1036016;28;20025;-70
2021/01/07 00:09:47;;;;;;;26.48;19.23;;;;;;;-2.09;100.00;95477.03;1036041;28;20014;-69
2021/01/07 00:10:18;;;;;;;27.85;19.58;;;;;;;-2.07;100.00;95470.63;1040449;28;20052;-70
2021/01/07 00:10:48;;;;;;;27.02;19.85;;;;;;;-2.06;100.00;95468.84;1031616;28;20474;-70
2021/01/07 00:11:19;;;;;;;28.13;19.67;;;;;;;-2.05;100.00;95470.44;1031997;28;20022;-70
2021/01/07 00:11:51;;;;;;;27.38;19.70;;;;;;;-2.05;100.00;95470.44;1031472;28;20108;-70
2021/01/07 00:12:22;;;;;;;26.10;18.50;;;;;;;-2.03;100.00;95471.03;1032710;28;20026;-70
2021/01/07 00:12:52;;;;;;;26.55;19.58;;;;;;;-2.04;100.00;95477.22;1040385;28;20248;-69
2021/01/07 00:13:23;;;;;;;25.73;18.42;;;;;;;-2.01;100.00;95475.00;1040375;28;20124;-69
2021/01/07 00:13:53;;;;;;;27.33;19.20;;;;;;;-2.02;100.00;95475.22;1040234;28;20469;-70
2021/01/07 00:14:24;;;;;;;26.33;19.52;;;;;;;-2.02;100.00;95477.81;1040432;28;20029;-69
2021/01/07 00:14:54;;;;;;;27.63;19.75;;;;;;;-2.03;100.00;95478.81;1040330;28;20025;-69
2021/01/07 00:15:25;;;;;;;25.77;19.92;;;;;;;-2.01;100.00;95475.00;1035970;28;20030;-69
2021/01/07 00:15:55;;;;;;;27.02;20.27;;;;;;;-2.00;100.00;95470.63;1036128;28;20030;-69
2021/01/07 00:16:26;;;;;;;26.55;18.20;;;;;;;-2.01;100.00;95472.41;1035926;28;20030;-68
2021/01/07 00:16:56;;;;;;;26.55;18.23;;;;;;;-1.98;100.00;95471.22;1036000;28;20022;-69
2021/01/07 00:17:27;;;;;;;28.33;20.17;;;;;;;-2.02;100.00;95470.03;1035629;28;20124;-70
2021/01/07 00:17:57;;;;;;;25.88;19.20;;;;;;;-2.02;100.00;95483.78;1036047;28;20022;-69
2021/01/07 00:18:28;;;;;;;27.80;20.20;;;;;;;-2.02;100.00;95485.59;1040363;28;20048;-69
2021/01/07 00:18:58;;;;;;;26.10;18.90;;;;;;;-2.03;100.00;95481.41;1040373;28;20060;-69
2021/01/07 00:19:29;;;;;;;27.10;20.65;;;;;;;-2.00;100.00;95481.00;1035996;28;20048;-70
2021/01/07 00:19:59;;;;;;;27.52;19.58;;;;;;;-2.04;100.00;95477.22;1031956;28;20057;-70
2021/01/07 00:20:31;;;;;;;26.55;19.48;;;;;;;-2.05;100.00;95480.81;1031943;28;20030;-70
2021/01/07 00:21:02;;;;;;;27.05;19.15;;;;;;;-2.07;100.00;95483.59;1032155;28;20030;-69
2021/01/07 00:21:32;;;;;;;26.50;20.83;;;;;;;-2.04;100.00;95480.59;1028155;28;20293;-70
2021/01/07 00:22:02;;;;;;;29.00;20.23;;;;;;;-2.01;100.00;95487.16;1031991;28;20022;-70
2021/01/07 00:22:33;;;;;;;27.27;19.98;;;;;;;-2.01;100.00;95481.97;1023966;29;20031;-70
2021/01/07 00:23:03;;;;;;;28.38;19.55;;;;;;;-1.99;100.00;95485.16;1024088;28;20019;-69
2021/01/07 00:23:34;;;;;;;26.73;20.00;;;;;;;-1.97;100.00;95483.16;1032012;28;20022;-70
2021/01/07 00:24:05;;;;;;;24.58;18.73;;;;;;;-1.98;100.00;95481.59;1027982;28;20361;-68
2021/01/07 00:24:35;;;;;;;26.77;19.98;;;;;;;-2.00;100.00;95486.19;1035966;28;20078;-70
2021/01/07 00:25:07;;;;;;;25.88;20.45;;;;;;;-2.02;100.00;95485.59;1036001;28;20581;-71
2021/01/07 00:25:38;;;;;;;23.70;18.25;;;;;;;-2.03;100.00;95489.19;1035789;28;20084;-69
2021/01/07 00:26:08;;;;;;;24.45;18.98;;;;;;;-1.98;100.00;95488.53;1027828;28;20608;-69
2021/01/07 00:26:39;;;;;;;26.25;19.05;;;;;;;-2.01;100.00;95481.97;1031988;28;20265;-70
2021/01/07 00:27:09;;;;;;;26.80;19.35;;;;;;;-1.96;100.00;95486.53;1023867;29;20027;-70
2021/01/07 00:27:40;;;;;;;26.33;19.42;;;;;;;-1.98;100.00;95479.00;1024093;28;20114;-69
2021/01/07 00:28:10;;;;;;;26.77;19.98;;;;;;;-1.99;100.00;95479.97;1027878;28;20027;-70
2021/01/07 00:28:41;;;;;;;24.05;17.67;;;;;;;-2.05;100.00;95478.22;1024166;28;20026;-70
2021/01/07 00:29:11;;;;;;;24.60;16.95;;;;;;;-1.96;100.00;95484.75;1027872;28;20023;-70
2021/01/07 00:29:42;;;;;;;28.08;19.88;;;;;;;-1.98;100.00;95486.78;1023998;28;20468;-70
2021/01/07 00:30:13;;;;;;;26.63;17.77;;;;;;;-1.97;100.00;95480.56;1027463;28;20035;-69
2021/01/07 00:30:44;;;;;;;26.00;19.30;;;;;;;-1.94;100.00;95487.94;1032168;28;20489;-70
2021/01/07 00:31:15;;;;;;;26.63;19.75;;;;;;;-1.94;100.00;95474.97;1032234;28;20253;-69
2021/01/07 00:31:45;;;;;;;27.05;19.88;;;;;;;-1.93;100.00;95480.94;1027982;28;20022;-70
2021/01/07 00:32:16;;;;;;;26.55;18.67;;;;;;;-1.92;100.00;95485.13;1023435;29;20472;-69
2021/01/07 00:32:46;;;;;;;24.63;18.73;;;;;;;-1.92;100.00;95479.94;1024008;29;20023;-70
2021/01/07 00:33:17;;;;;;;26.17;19.40;;;;;;;-1.91;100.00;95484.91;1024063;28;20030;-69
2021/01/07 00:33:48;;;;;;;28.77;20.55;;;;;;;-1.92;100.00;95482.53;1024341;28;20019;-70
2021/01/07 00:34:18;;;;;;;27.10;19.23;;;;;;;-1.93;100.00;95480.94;1035959;28;20014;-70
2021/01/07 00:34:48;;;;;;;26.23;18.77;;;;;;;-1.90;100.00;95485.72;1023855;29;20020;-70
2021/01/07 00:35:19;;;;;;;24.48;18.50;;;;;;;-1.90;100.00;95488.31;1024060;28;20092;-70
2021/01/07 00:35:49;;;;;;;25.38;18.52;;;;;;;-1.89;100.00;95485.50;1027971;28;20423;-70
2021/01/07 00:36:20;;;;;;;27.08;19.38;;;;;;;-1.90;100.00;95486.53;1028177;28;20419;-70
2021/01/07 00:36:56;;;;;;;29.98;21.27;;;;;;;-1.94;100.00;95487.13;1035898;28;20026;-68
2021/01/07 00:37:27;;;;;;;26.80;19.98;;;;;;;-1.92;100.00;95475.56;1036047;28;20021;-69
2021/01/07 00:37:58;;;;;;;24.25;17.50;;;;;;;-1.93;100.00;95483.53;1031822;28;20795;-70
2021/01/07 00:38:28;;;;;;;27.80;19.33;;;;;;;-1.94;100.00;95480.16;1032774;28;20081;-70
2021/01/07 00:38:59;;;;;;;26.40;19.67;;;;;;;-1.91;100.00;95484.13;1035982;28;20072;-70
2021/01/07 00:39:29;;;;;;;25.58;18.45;;;;;;;-1.91;100.00;95481.53;1031828;28;20022;-68
2021/01/07 00:40:00;;;;;;;25.00;19.60;;;;;;;-1.97;100.00;95480.56;1027785;28;20102;-69
2021/01/07 00:40:31;;;;;;;27.73;19.25;;;;;;;-1.95;100.00;95475.97;1027937;28;20026;-69
2021/01/07 00:41:02;;;;;;;28.02;20.70;;;;;;;-1.94;100.00;95477.56;1024001;28;20027;-68
2021/01/07 00:41:33;;;;;;;26.30;18.77;;;;;;;-1.92;100.00;95478.16;1028170;28;20845;-70
2021/01/07 00:42:03;;;;;;;26.33;19.35;;;;;;;-1.91;100.00;95479.75;1031868;28;20364;-69
2021/01/07 00:42:34;;;;;;;28.65;20.02;;;;;;;-1.92;100.00;95474.75;1032078;28;20093;-69
2021/01/07 00:43:04;;;;;;;31.52;20.55;;;;;;;-1.95;100.00;95480.38;1036102;28;20026;-70
2021/01/07 00:43:35;;;;;;;22.73;17.58;;;;;;;-1.89;100.00;95480.31;1035967;28;20014;-69
2021/01/07 00:44:05;;;;;;;26.15;18.58;;;;;;;-1.89;100.00;95469.16;1031816;28;20035;-70
2021/01/07 00:44:36;;;;;;;27.90;19.42;;;;;;;-1.89;100.00;95475.13;1027916;28;20023;-70
2021/01/07 00:45:07;;;;;;;26.58;18.83;;;;;;;-1.86;100.00;95481.72;1023975;28;20035;-69
2021/01/07 00:45:37;;;;;;;26.10;19.67;;;;;;;-1.90;100.00;95480.53;1028072;28;20031;-70
2021/01/07 00:46:08;;;;;;;26.48;19.02;;;;;;;-1.90;100.00;95485.72;1027988;28;20436;-70
2021/01/07 00:46:39;;;;;;;29.35;19.67;;;;;;;-1.88;100.00;95481.94;1032167;28;20463;-69
2021/01/07 00:47:09;;;;;;;26.10;19.90;;;;;;;-1.89;100.00;95482.91;1035457;28;20284;-70
2021/01/07 00:47:40;;;;;;;27.58;20.10;;;;;;;-1.88;100.00;95481.13;1036194;28;20109;-69
2021/01/07 00:48:10;;;;;;;25.00;18.13;;;;;;;-1.87;100.00;95480.91;1040272;28;20390;-70
2021/01/07 00:48:41;;;;;;;25.52;17.80;;;;;;;-1.90;100.00;95478.75;1040366;28;20029;-70
2021/01/07 00:49:12;;;;;;;26.33;19.25;;;;;;;-1.93;100.00;95479.16;1040256;28;20030;-69
2021/01/07 00:49:44;;;;;;;25.23;18.83;;;;;;;-1.91;100.00;95466.78;1040313;28;20381;-70
2021/01/07 00:50:14;;;;;;;24.90;17.05;;;;;;;-1.89;100.00;95471.75;1035914;28;20033;-71
2021/01/07 00:50:45;;;;;;;25.80;17.75;;;;;;;-1.88;100.00;95476.75;1035915;28;20800;-70
2021/01/07 00:51:15;;;;;;;28.77;19.38;;;;;;;-1.89;100.00;95480.31;1035955;28;20021;-70
2021/01/07 00:51:46;;;;;;;26.55;18.92;;;;;;;-1.91;100.00;95484.91;1036151;28;20037;-70
2021/01/07 00:52:16;;;;;;;27.80;19.88;;;;;;;-1.90;100.00;95477.94;1036005;28;20022;-71
2021/01/07 00:52:47;;;;;;;27.25;20.33;;;;;;;-1.88;100.00;95479.34;1035958;28;20026;-70
2021/01/07 00:53:17;;;;;;;28.63;19.75;;;;;;;-1.87;100.00;95478.31;1031941;28;20502;-70
2021/01/07 00:53:48;;;;;;;25.98;19.50;;;;;;;-1.89;100.00;95487.31;1031977;28;20086;-69
2021/01/07 00:54:18;;;;;;;25.60;18.70;;;;;;;-1.89;100.00;95484.72;1035937;28;20022;-70
2021/01/07 00:54:49;;;;;;;26.65;20.50;;;;;;;-1.91;100.00;95481.53;1031843;28;20026;-70
2021/01/07 00:55:19;;;;;;;27.25;19.88;;;;;;;-1.90;100.00;95483.94;1031895;28;20026;-69
2021/01/07 00:55:50;;;;;;;26.42;19.27;;;;;;;-1.86;100.00;95481.72;1031592;28;20026;-70
2021/01/07 00:56:20;;;;;;;27.85;19.92;;;;;;;-1.87;100.00;95480.91;1032026;28;20356;-69
2021/01/07 00:56:51;;;;;;;27.15;19.88;;;;;;;-1.85;100.00;95486.69;1036036;28;20437;-70
2021/01/07 00:57:21;;;;;;;28.15;21.33;;;;;;;-1.87;100.00;95493.88;1040265;28;20124;-69
2021/01/07 00:57:52;;;;;;;30.50;21.58;;;;;;;-1.87;100.00;95485.31;1040266;28;20022;-70
2021/01/07 00:58:22;;;;;;;29.00;20.35;;;;;;;-1.85;100.00;95489.28;1040319;28;20095;-70
2021/01/07 00:58:53;;;;;;;29.25;20.85;;;;;;;-1.87;100.00;95495.69;1035878;28;20029;-69
2021/01/07 00:59:23;;;;;;;29.42;19.83;;;;;;;-1.88;100.00;95494.91;1035957;28;20018;-70
2021/01/07 00:59:54;;;;;;;24.58;17.98;;;;;;;-1.87;100.00;95485.31;1035891;28;20064;-69
2021/01/07 01:00:24;;;;;;;29.17;20.33;;;;;;;-1.90;100.00;95486.53;1031861;28;20046;-69
2021/01/07 01:00:55;;;;;;;24.42;19.10;;;;;;;-1.91;100.00;95490.09;1035923;28;20030;-68
2021/01/07 01:01:25;;;;;;;30.58;20.55;;;;;;;-1.89;100.00;95490.69;1035985;28;20032;-69
2021/01/07 01:01:56;;;;;;;28.75;21.00;;;;;;;-1.91;100.00;95492.69;1035639;28;20077;-70
2021/01/07 01:02:26;;;;;;;27.58;20.60;;;;;;;-1.89;100.00;95493.28;1040337;28;20481;-69
2021/01/07 01:02:56;;;;;;;29.15;20.40;;;;;;;-1.89;100.00;95484.72;1040276;28;20034;-69
2021/01/07 01:03:27;;;;;;;27.73;20.60;;;;;;;-1.88;100.00;95489.72;1035918;28;20029;-70
2021/01/07 01:03:58;;;;;;;29.08;19.90;;;;;;;-1.90;100.00;95489.13;1031859;28;20364;-70
2021/01/07 01:04:28;;;;;;;29.23;21.05;;;;;;;-1.88;100.00;95492.31;1027796;28;20030;-70
2021/01/07 01:04:59;;;;;;;28.52;20.23;;;;;;;-1.87;100.00;95493.88;1027960;28;20407;-71
2021/01/07 01:05:29;;;;;;;28.50;21.27;;;;;;;-1.86;100.00;95494.69;1023904;28;20403;-69
2021/01/07 01:06:00;;;;;;;28.63;21.00;;;;;;;-1.87;100.00;95493.88;1027926;28;20150;-70
2021/01/07 01:06:31;;;;;;;26.98;19.60;;;;;;;-1.86;100.00;95492.88;1031857;28;20022;-70
2021/01/07 01:07:02;;;;;;;27.38;20.30;;;;;;;-1.87;100.00;95493.09;1032151;28;20063;-70
2021/01/07 01:07:32;;;;;;;30.55;20.77;;;;;;;-1.87;100.00;95501.66;1040268;28;20267;-69
2021/01/07 01:08:03;;;;;;;28.63;19.88;;;;;;;-1.86;100.00;95495.47;1040269;28;20029;-70
2021/01/07 01:08:33;;;;;;;27.52;19.35;;;;;;;-1.86;100.00;95500.66;1040257;28;20128;-70
2021/01/07 01:09:05;;;;;;;28.67;20.67;;;;;;;-1.89;100.00;95498.47;1035965;28;20029;-70
2021/01/07 01:09:35;;;;;;;26.38;19.55;;;;;;;-1.87;100.00;95504.25;1035913;28;20030;-70
2021/01/07 01:10:08;;;;;;;27.38;19.33;;;;;;;-1.88;100.00;95502.69;1031771;28;20269;-70
2021/01/07 01:10:38;;;;;;;27.67;21.05;;;;;;;-1.89;100.00;95502.88;1032260;28;20027;-70
2021/01/07 01:11:09;;;;;;;28.92;20.67;;;;;;;-1.88;100.00;95494.91;1035654;28;20269;-70
2021/01/07 01:11:43;;;;;;;28.55;20.42;;;;;;;-1.83;100.00;95507.22;1036290;28;20052;-69
2021/01/07 01:12:13;;;;;;;29.08;20.38;;;;;;;-1.87;100.00;95499.06;1040279;28;20079;-70
2021/01/07 01:12:44;;;;;;;29.77;20.85;;;;;;;-1.85;100.00;95504.84;1040264;28;20762;-70
2021/01/07 01:13:14;;;;;;;27.27;19.70;;;;;;;-1.85;100.00;95499.66;1040307;28;20433;-71
2021/01/07 01:13:45;;;;;;;29.90;21.33;;;;;;;-1.85;100.00;95499.66;1035934;28;20068;-70
2021/01/07 01:14:17;;;;;;;31.08;21.00;;;;;;;-1.89;100.00;95505.47;1035843;28;20597;-70
2021/01/07 01:14:47;;;;;;;29.80;20.90;;;;;;;-1.91;100.00;95505.66;1035836;28;20032;-69
2021/01/07 01:15:18;;;;;;;28.85;21.35;;;;;;;-1.89;100.00;95498.47;1032124;28;20277;-69
2021/01/07 01:15:48;;;;;;;32.05;22.60;;;;;;;-1.90;100.00;95498.69;1035857;28;20041;-68
2021/01/07 01:16:19;;;;;;;29.20;21.35;;;;;;;-1.93;100.00;95502.50;1035884;28;20030;-70
2021/01/07 01:16:50;;;;;;;31.08;23.02;;;;;;;-1.93;100.00;95502.50;1035898;28;20021;-69
2021/01/07 01:17:20;;;;;;;33.38;22.33;;;;;;;-1.90;100.00;95499.50;1035486;28;20026;-69
2021/01/07 01:17:51;;;;;;;29.05;22.15;;;;;;;-1.90;100.00;95502.09;1035863;28;20026;-68
2021/01/07 01:18:21;;;;;;;29.90;20.85;;;;;;;-1.88;100.00;95497.50;1031868;28;20026;-69
2021/01/07 01:18:52;;;;;;;28.88;20.38;;;;;;;-1.90;100.00;95494.31;1027782;28;20023;-68
2021/01/07 01:19:22;;;;;;;30.00;21.52;;;;;;;-1.86;100.00;95505.84;1031877;28;20030;-69
2021/01/07 01:19:53;;;;;;;32.63;22.98;;;;;;;-1.86;100.00;95502.47;1027914;28;20038;-69
2021/01/07 01:20:23;;;;;;;32.35;22.30;;;;;;;-1.93;100.00;95493.91;1027815;28;20616;-69
2021/01/07 01:20:54;;;;;;;31.67;22.85;;;;;;;-1.89;100.00;95505.47;1031796;28;20034;-69
2021/01/07 01:21:24;;;;;;;30.98;22.73;;;;;;;-1.90;100.00;95499.50;1031997;28;20038;-69
2021/01/07 01:21:55;;;;;;;31.00;21.77;;;;;;;-1.88;100.00;95502.69;1035828;28;20459;-69
2021/01/07 01:22:33;;;;;;;30.63;21.98;;;;;;;-1.92;100.00;95500.69;1027868;28;20023;-69
2021/01/07 01:23:05;;;;;;;29.67;21.73;;;;;;;-1.90;100.00;95502.09;1027891;28;20054;-69
2021/01/07 01:23:35;;;;;;;28.38;20.48;;;;;;;-1.90;100.00;95504.69;1029159;28;20273;-69
2021/01/07 01:24:06;;;;;;;32.75;22.52;;;;;;;-1.93;100.00;95501.69;1021688;29;20362;-69
2021/01/07 01:24:36;;;;;;;30.15;22.15;;;;;;;-1.89;100.00;95501.06;1020567;29;20405;-70
2021/01/07 01:25:08;;;;;;;34.35;22.10;;;;;;;-1.89;100.00;95505.47;1016788;29;20036;-70
2021/01/07 01:25:39;;;;;;;32.75;21.83;;;;;;;-1.89;100.00;95498.47;1016878;28;20032;-69
2021/01/07 01:26:09;;;;;;;33.67;21.40;;;;;;;-1.85;100.00;95507.44;1024263;29;20373;-69
2021/01/07 01:26:40;;;;;;;33.95;23.58;;;;;;;-1.87;100.00;95506.84;1024819;28;20531;-69
2021/01/07 01:27:10;;;;;;;30.27;22.08;;;;;;;-1.90;100.00;95504.69;1028522;28;20034;-70
2021/01/07 01:27:41;;;;;;;31.63;22.50;;;;;;;-1.91;100.00;95502.28;1032678;28;20030;-70
2021/01/07 01:28:12;;;;;;;34.22;22.75;;;;;;;-1.91;100.00;95503.06;1032553;28;20463;-69
2021/01/07 01:28:42;;;;;;;32.08;22.70;;;;;;;-1.88;100.00;95507.06;1032578;28;20261;-70
2021/01/07 01:29:13;;;;;;;32.38;22.52;;;;;;;-1.87;100.00;95506.06;1032514;28;20437;-70
2021/01/07 01:29:43;;;;;;;29.23;20.92;;;;;;;-1.89;100.00;95508.06;1028529;28;20035;-70
2021/01/07 01:30:14;;;;;;;32.67;22.95;;;;;;;-1.92;100.00;95511.06;1024439;28;20075;-70
2021/01/07 01:30:45;;;;;;;30.70;21.80;;;;;;;-1.90;100.00;95509.03;1020514;29;20036;-70
2021/01/07 01:31:15;;;;;;;32.30;22.85;;;;;;;-1.93;100.00;95505.09;1020786;29;20267;-69
2021/01/07 01:31:46;;;;;;;33.22;22.65;;;;;;;-1.95;100.00;95511.47;1024780;28;20063;-69
2021/01/07 01:32:16;;;;;;;34.15;24.50;;;;;;;-1.96;100.00;95507.28;1028250;28;20029;-70
2021/01/07 01:32:47;;;;;;;36.05;24.20;;;;;;;-1.91;100.00;95518.63;1032562;28;20026;-69
2021/01/07 01:33:17;;;;;;;35.08;24.85;;;;;;;-1.92;100.00;95509.28;1032564;28;20056;-69
2021/01/07 01:33:48;;;;;;;31.67;21.90;;;;;;;-1.92;100.00;95506.69;1028658;28;20472;-69
2021/01/07 01:34:21;;;;;;;34.35;22.48;;;;;;;-1.90;100.00;95507.28;1032545;28;20026;-69
2021/01/07 01:34:52;;;;;;;35.78;24.25;;;;;;;-1.92;100.00;95511.88;1024550;29;20102;-69
2021/01/07 01:35:22;;;;;;;30.75;22.25;;;;;;;-1.93;100.00;95515.44;1025058;28;20262;-70
2021/01/07 01:35:53;;;;;;;30.30;21.92;;;;;;;-1.93;100.00;95517.25;1024578;29;20094;-69
2021/01/07 01:36:26;;;;;;;33.55;23.08;;;;;;;-1.97;100.00;95510.91;1020750;28;20038;-70
2021/01/07 01:37:04;;;;;;;31.58;22.45;;;;;;;-1.92;100.00;95511.88;1028514;28;20093;-69
2021/01/07 01:37:35;;;;;;;32.35;22.20;;;;;;;-1.95;100.00;95506.28;1030062;28;20337;-69
2021/01/07 01:38:06;;;;;;;32.85;22.33;;;;;;;-1.97;100.00;95509.09;1034248;28;20759;-70
2021/01/07 01:38:36;;;;;;;32.45;22.80;;;;;;;-1.95;100.00;95520.06;1036842;28;20265;-69
2021/01/07 01:39:07;;;;;;;31.70;22.35;;;;;;;-1.95;100.00;95512.28;1036894;28;20071;-69
2021/01/07 01:39:39;;;;;;;34.60;23.10;;;;;;;-1.92;100.00;95508.47;1032560;28;20481;-69
2021/01/07 01:40:10;;;;;;;32.03;21.35;;;;;;;-1.92;100.00;95514.47;1032528;28;20041;-69
2021/01/07 01:40:41;;;;;;;30.80;21.92;;;;;;;-1.93;100.00;95515.44;1032503;28;20350;-71
2021/01/07 01:41:11;;;;;;;32.70;22.55;;;;;;;-1.93;100.00;95520.63;1032661;28;20292;-69
2021/01/07 01:41:45;;;;;;;36.03;23.92;;;;;;;-1.93;100.00;95517.25;1032555;28;20015;-69
2021/01/07 01:42:26;;;;;;;31.23;22.08;;;;;;;-1.97;100.00;95510.91;1032522;28;20026;-69
2021/01/07 01:42:58;;;;;;;34.50;22.83;;;;;;;-1.94;100.00;95513.88;1028537;28;20350;-70
2021/01/07 01:43:28;;;;;;;33.85;22.17;;;;;;;-1.96;100.00;95517.66;1026509;28;20267;-70
2021/01/07 01:43:59;;;;;;;32.70;22.77;;;;;;;-1.96;100.00;95518.47;1028539;28;20774;-70
2021/01/07 01:44:29;;;;;;;35.30;22.80;;;;;;;-1.95;100.00;95517.47;1028445;28;20034;-70
2021/01/07 01:45:00;;;;;;;32.00;22.48;;;;;;;-1.92;100.00;95513.66;1024763;28;20432;-70
2021/01/07 01:45:30;;;;;;;33.05;22.35;;;;;;;-1.97;100.00;95516.88;1024436;29;20015;-69
2021/01/07 01:46:01;;;;;;;33.95;23.42;;;;;;;-1.92;100.00;95519.66;1020664;29;20517;-70
2021/01/07 01:46:32;;;;;;;32.50;22.58;;;;;;;-1.93;100.00;95519.84;1024615;28;20038;-69
2021/01/07 01:47:02;;;;;;;34.33;23.15;;;;;;;-1.91;100.00;95517.84;1024214;28;20357;-69
2021/01/07 01:47:34;;;;;;;33.60;23.25;;;;;;;-1.92;100.00;95517.06;1024442;29;20063;-70
2021/01/07 01:48:04;;;;;;;31.73;22.02;;;;;;;-1.94;100.00;95513.06;1024647;28;20015;-70
2021/01/07 01:48:35;;;;;;;30.50;22.33;;;;;;;-1.89;100.00;95518.44;1028479;28;20250;-70
2021/01/07 01:49:06;;;;;;;31.80;22.83;;;;;;;-1.90;100.00;95512.47;1024536;29;20376;-70
2021/01/07 01:49:36;;;;;;;31.98;22.35;;;;;;;-1.89;100.00;95510.66;1020750;29;20075;-70
2021/01/07 01:50:07;;;;;;;32.50;22.48;;;;;;;-1.89;100.00;95516.63;1024638;28;20020;-69
2021/01/07 01:50:38;;;;;;;33.30;24.48;;;;;;;-1.89;100.00;95518.44;1024641;28;20026;-69
2021/01/07 01:51:08;;;;;;;34.30;23.80;;;;;;;-1.87;100.00;95516.44;1028736;28;20258;-69
2021/01/07 01:51:39;;;;;;;31.52;22.17;;;;;;;-1.85;100.00;95517.81;1028416;28;20026;-70
2021/01/07 01:52:09;;;;;;;31.38;21.85;;;;;;;-1.85;100.00;95520.41;1024624;28;20106;-70
2021/01/07 01:52:40;;;;;;;32.55;23.70;;;;;;;-1.85;100.00;95512.63;1028443;28;20443;-69
2021/01/07 01:53:10;;;;;;;33.33;22.05;;;;;;;-1.84;100.00;95519.41;1028414;28;20031;-70
2021/01/07 01:53:41;;;;;;;34.97;22.35;;;;;;;-1.83;100.00;95518.41;1028545;28;20101;-69
2021/01/07 01:54:11;;;;;;;32.50;22.52;;;;;;;-1.86;100.00;95516.22;1036493;28;20025;-70
2021/01/07 01:54:43;;;;;;;33.45;24.27;;;;;;;-1.87;100.00;95514.63;1032368;28;20031;-69
2021/01/07 01:55:13;;;;;;;31.02;22.50;;;;;;;-1.91;100.00;95508.25;1020485;29;20038;-70
2021/01/07 01:55:44;;;;;;;33.97;21.83;;;;;;;-1.88;100.00;95520.03;1020619;29;20287;-71
2021/01/07 01:56:15;;;;;;;32.70;23.10;;;;;;;-1.87;100.00;95514.63;1020179;29;20500;-69
2021/01/07 01:56:46;;;;;;;30.92;21.25;;;;;;;-1.84;100.00;95518.63;1020841;28;20510;-70
2021/01/07 01:57:17;;;;;;;31.50;22.42;;;;;;;-1.85;100.00;95515.22;1032479;28;20015;-71
2021/01/07 01:57:48;;;;;;;32.95;22.55;;;;;;;-1.83;100.00;95518.41;1024717;28;20698;-69
2021/01/07 01:58:18;;;;;;;32.13;22.58;;;;;;;-1.84;100.00;95513.44;1024447;29;20016;-70
2021/01/07 01:58:49;;;;;;;32.47;22.55;;;;;;;-1.82;100.00;95512.22;1024377;29;20023;-69
2021/01/07 01:59:21;;;;;;;31.58;21.40;;;;;;;-1.83;100.00;95509.81;1020340;29;20110;-69
2021/01/07 01:59:51;;;;;;;31.15;22.67;;;;;;;-1.82;100.00;95514.81;1020442;29;20255;-70
2021/01/07 02:00:22;;;;;;;30.65;20.83;;;;;;;-1.80;100.00;95517.22;1020360;28;20274;-70
2021/01/07 02:00:52;;;;;;;30.27;21.83;;;;;;;-1.85;100.00;95507.44;1024599;28;20090;-69
2021/01/07 02:01:23;;;;;;;33.35;22.83;;;;;;;-1.83;100.00;95508.03;1032624;28;20091;-69
2021/01/07 02:01:53;;;;;;;30.30;20.27;;;;;;;-1.81;100.00;95515.59;1032093;28;20081;-70
2021/01/07 02:02:25;;;;;;;29.23;20.65;;;;;;;-1.81;100.00;95516.38;1032502;28;20014;-69
2021/01/07 02:02:56;;;;;;;31.92;22.27;;;;;;;-1.80;100.00;95515.41;1024354;28;20271;-69
2021/01/07 02:03:26;;;;;;;31.27;22.35;;;;;;;-1.82;100.00;95517.41;1024733;28;20023;-69
2021/01/07 02:03:57;;;;;;;31.80;22.58;;;;;;;-1.80;100.00;95512.03;1028463;28;20106;-70
2021/01/07 02:04:27;;;;;;;30.45;21.73;;;;;;;-1.77;100.00;95516.00;1024697;28;20380;-70
2021/01/07 02:04:58;;;;;;;32.70;23.00;;;;;;;-1.80;100.00;95509.44;1028305;28;20615;-69
2021/01/07 02:05:29;;;;;;;29.63;21.13;;;;;;;-1.79;100.00;95505.81;1028379;28;20034;-69
2021/01/07 02:05:59;;;;;;;29.67;21.35;;;;;;;-1.78;100.00;95515.19;1028505;28;20057;-69
2021/01/07 02:06:30;;;;;;;30.17;22.15;;;;;;;-1.73;100.00;95514.56;1024391;28;20031;-68
2021/01/07 02:07:02;;;;;;;28.75;20.95;;;;;;;-1.75;100.00;95511.38;1020296;29;20397;-69
2021/01/07 02:07:32;;;;;;;31.30;22.42;;;;;;;-1.75;100.00;95507.00;1016521;29;20561;-69
2021/01/07 02:08:03;;;;;;;28.23;20.33;;;;;;;-1.73;100.00;95509.38;1016727;29;20287;-68
2021/01/07 02:08:33;;;;;;;29.88;21.10;;;;;;;-1.74;100.00;95507.81;1024343;29;20131;-68
2021/01/07 02:09:06;;;;;;;31.35;22.08;;;;;;;-1.72;100.00;95514.38;1020721;28;20028;-69
2021/01/07 02:09:36;;;;;;;30.67;20.92;;;;;;;-1.72;100.00;95514.38;1020532;29;20552;-69
2021/01/07 02:10:08;;;;;;;31.95;21.95;;;;;;;-1.77;100.00;95503.81;1016790;29;20316;-68
2021/01/07 02:10:38;;;;;;;28.52;21.17;;;;;;;-1.81;100.00;95503.41;1016992;29;20042;-68
2021/01/07 02:11:10;;;;;;;30.90;21.27;;;;;;;-1.77;100.00;95506.41;1020678;28;20340;-69
2021/01/07 02:11:40;;;;;;;30.60;21.38;;;;;;;-1.79;100.00;95505.81;1024747;28;20456;-70
2021/01/07 02:12:11;;;;;;;30.85;21.23;;;;;;;-1.75;100.00;95507.00;1024294;29;20274;-69
2021/01/07 02:12:45;;;;;;;30.27;21.25;;;;;;;-1.71;100.00;95513.34;1020485;29;20026;-70
2021/01/07 02:13:15;;;;;;;28.60;20.88;;;;;;;-1.83;100.00;95513.22;1020898;29;20083;-69
2021/01/07 02:13:46;;;;;;;28.67;21.42;;;;;;;-1.76;100.00;95504.59;1017572;29;20252;-69
2021/01/07 02:14:17;;;;;;;28.35;20.38;;;;;;;-1.75;100.00;95516.56;1023346;29;20047;-69
2021/01/07 02:14:47;;;;;;;27.45;19.60;;;;;;;-1.76;100.00;95509.78;1024370;29;20275;-69
2021/01/07 02:15:18;;;;;;;28.23;20.77;;;;;;;-1.76;100.00;95513.19;1024436;28;20034;-69
2021/01/07 02:15:48;;;;;;;29.88;20.73;;;;;;;-1.77;100.00;95516.00;1028365;28;20109;-69
2021/01/07 02:16:20;;;;;;;29.02;20.00;;;;;;;-1.77;100.00;95506.41;1032598;28;20073;-69
2021/01/07 02:16:51;;;;;;;29.05;20.42;;;;;;;-1.75;100.00;95509.56;1027972;28;20080;-69
2021/01/07 02:17:21;;;;;;;30.73;20.98;;;;;;;-1.74;100.00;95513.00;1028385;28;20258;-69
2021/01/07 02:17:52;;;;;;;30.05;21.38;;;;;;;-1.74;100.00;95513.78;1028377;28;20019;-70
2021/01/07 02:18:22;;;;;;;30.33;21.25;;;;;;;-1.72;100.00;95508.38;1024267;29;20448;-70
2021/01/07 02:18:56;;;;;;;27.63;19.77;;;;;;;-1.71;100.00;95517.75;1024474;28;20047;-70
2021/01/07 02:19:26;;;;;;;27.10;20.52;;;;;;;-1.72;100.00;95506.59;1024361;28;20106;-69
2021/01/07 02:19:58;;;;;;;28.40;19.65;;;;;;;-1.72;100.00;95506.59;1020935;29;20255;-69